Lander, WY

6:27 PM MST on February 26, 2017 (GMT -0700)
South Pass

Weather History for KFWZ - January, 2014

Change the Weather History Date:

Wednesday, January 29, 2014

  Actual Average (KLND) Record (KLND)
Temperature  
Mean Temperature 23 °F -  
Max Temperature 32 °F 32 °F 53 °F (1911)
Min Temperature 14 °F 9 °F -34 °F (1916)
Degree Days  
Heating Degree Days 42    
Moisture  
Dew Point 20 °F    
Average Humidity 78    
Maximum Humidity 100    
Minimum Humidity 34    
Precipitation  
Precipitation 0.00 in - - ()
Sea Level Pressure  
Sea Level Pressure 29.52 in    
Wind  
Wind Speed 15 mph (WSW)    
Max Wind Speed 38 mph    
Max Gust Speed 47 mph    
Visibility 6 miles    
Events Snow    
Averages and records for this station are not official NWS values.
T = Trace of Precipitation, MM = Missing Value Source: NWS Daily Summary

Daily Weather History Graph

Daily Weather History Graph

Search for Another Location

Airport or City:

Trip Planner

Search our weather history database for the weather conditions in past years. The results will help you decide how hot, cold, wet, or windy it might be!

Date:

Astronomy

Jan. 29, 2014 Rise Set
Actual Time 7:31 AM MST 5:25 PM MST
Civil Twilight 7:01 AM MST 5:55 PM MST
Nautical Twilight 6:28 AM MST 6:29 PM MST
Astronomical Twilight 5:54 AM MST 7:02 PM MST
Moon 6:11 AM MST (1/29) 4:28 PM MST (1/29)
Length of Visible Light 10h 53m
Length of Day
9h 53m
Waning Crescent, 2% of the Moon is Illuminated
Jan 29
Waning Crescent
Jan 30
New
Feb 6
First Quarter
Feb 14
Full
Feb 22
Last Quarter

Hourly Weather History & Observations

Time (MST) Temp. Windchill Dew Point Humidity Pressure Visibility Wind Dir Wind Speed Gust Speed Precip Events Conditions
12:15 AM 26.6 °F 17.5 °F 1.4 °F 34% - 10.0 mi WSW 9.2 mph - N/A   Overcast
12:35 AM 26.6 °F 20.0 °F 3.2 °F 37% - 10.0 mi West 5.8 mph - N/A   Scattered Clouds
12:55 AM 24.8 °F 16.1 °F 5.0 °F 43% - 10.0 mi WSW 8.1 mph - N/A   Clear
1:15 AM 24.8 °F 14.6 °F 3.2 °F 40% - 10.0 mi WSW 10.4 mph - N/A   Clear
1:35 AM 23.0 °F 12.4 °F 3.2 °F 43% - 10.0 mi West 10.4 mph - N/A   Clear
1:55 AM 24.8 °F 13.4 °F 5.0 °F 43% - 10.0 mi West 12.7 mph - N/A   Clear
2:15 AM 23.0 °F 13.1 °F 5.0 °F 46% - 10.0 mi West 9.2 mph - N/A   Clear
2:35 AM 23.0 °F 11.7 °F 8.6 °F 54% - 10.0 mi West 11.5 mph - N/A   Clear
2:55 AM 26.6 °F 14.7 °F 12.2 °F 55% - 10.0 mi West 15.0 mph 20.7 mph N/A   Clear
3:15 AM 26.6 °F 14.7 °F 14.0 °F 59% - 10.0 mi West 15.0 mph 21.9 mph N/A   Clear
3:35 AM 26.6 °F 13.4 °F 14.0 °F 59% - 10.0 mi West 18.4 mph 23.0 mph N/A   Clear
3:55 AM 26.6 °F 14.7 °F 15.8 °F 64% - 10.0 mi West 15.0 mph 23.0 mph N/A   Clear
4:15 AM 26.6 °F 18.2 °F 15.8 °F 64% - 10.0 mi WNW 8.1 mph 15.0 mph N/A   Clear
4:35 AM 28.4 °F 17.5 °F 17.6 °F 64% - 10.0 mi West 13.8 mph 21.9 mph N/A   Clear
4:55 AM 28.4 °F 19.7 °F 15.8 °F 59% - 10.0 mi WSW 9.2 mph - N/A   Clear
5:15 AM 23.0 °F 11.7 °F 14.0 °F 68% - 10.0 mi SW 11.5 mph - N/A   Clear
5:35 AM 24.8 °F 13.4 °F 14.0 °F 64% - 10.0 mi WSW 12.7 mph 19.6 mph N/A   Clear
5:55 AM 19.4 °F 9.5 °F 12.2 °F 74% - 10.0 mi SW 8.1 mph - N/A   Clear
6:15 AM 23.0 °F 10.1 °F 14.0 °F 68% - 10.0 mi WSW 15.0 mph - N/A   Clear
6:35 AM 19.4 °F 6.0 °F 12.2 °F 74% - 10.0 mi WSW 13.8 mph - N/A   Clear
6:55 AM 15.8 °F 1.4 °F 10.4 °F 79% - 10.0 mi SW 13.8 mph - N/A   Clear
7:15 AM 14.0 °F 2.9 °F 10.4 °F 86% - 10.0 mi SW 8.1 mph - N/A   Clear
7:35 AM 17.6 °F 5.7 °F 12.2 °F 79% - 10.0 mi SW 10.4 mph 16.1 mph N/A   Clear
7:55 AM 19.4 °F 8.6 °F 14.0 °F 80% - 10.0 mi SW 9.2 mph - N/A   Clear
8:15 AM 23.0 °F 14.7 °F 17.6 °F 80% - 10.0 mi SW 6.9 mph - N/A   Clear
8:35 AM 26.6 °F 19.1 °F 19.4 °F 74% - 10.0 mi SW 6.9 mph - N/A   Clear
8:55 AM 30.2 °F 20.2 °F 21.2 °F 69% - 10.0 mi West 12.7 mph 19.6 mph N/A   Scattered Clouds
9:15 AM 32.0 °F 23.6 °F 21.2 °F 64% - 10.0 mi WNW 10.4 mph 18.4 mph N/A   Clear
9:35 AM 28.4 °F 21.2 °F 21.2 °F 74% 29.76 in 10.0 mi West 6.9 mph - N/A   Clear
9:55 AM 30.2 °F 20.2 °F 23.0 °F 75% - 10.0 mi West 12.7 mph 19.6 mph N/A   Clear
10:15 AM 30.2 °F 14.7 °F 23.0 °F 75% - 2.5 mi WSW 32.2 mph 42.6 mph N/A   Haze
10:35 AM 28.4 °F 11.6 °F 23.0 °F 80% - 1.2 mi WSW 35.7 mph 46.0 mph N/A Snow Light Snow
10:55 AM 28.4 °F 12.5 °F 24.8 °F 86% - 2.0 mi WSW 31.1 mph 41.4 mph N/A   Mostly Cloudy
11:15 AM 28.4 °F 14.1 °F 23.0 °F 80% - 2.0 mi WSW 24.2 mph 33.4 mph N/A   Haze
11:35 AM 28.4 °F 13.0 °F 23.0 °F 80% - 1.8 mi WSW 28.8 mph 34.5 mph N/A   Overcast
11:55 AM 28.4 °F 12.5 °F 23.0 °F 80% - 1.2 mi WSW 31.1 mph 38.0 mph N/A   Overcast
12:15 PM 28.4 °F 13.8 °F 24.8 °F 86% - 1.0 mi WSW 25.3 mph 35.7 mph N/A Snow Light Snow
12:35 PM 28.4 °F 14.4 °F 24.8 °F 86% - 1.5 mi WSW 23.0 mph 39.1 mph N/A   Overcast
12:55 PM 28.4 °F 13.8 °F 24.8 °F 86% - 1.8 mi WSW 25.3 mph 34.5 mph N/A   Overcast
1:15 PM 28.4 °F 14.4 °F 26.6 °F 93% 29.63 in 1.2 mi WSW 23.0 mph 33.4 mph N/A Snow Light Snow
1:35 PM 26.6 °F 11.1 °F 24.8 °F 93% - 0.5 mi WSW 26.5 mph 33.4 mph N/A Snow Light Snow
1:55 PM 26.6 °F 10.0 °F 24.8 °F 93% - 0.2 mi WSW 31.1 mph 41.4 mph N/A Snow Snow
2:15 PM 26.6 °F 9.6 °F 24.8 °F 93% - 0.2 mi WSW 33.4 mph 43.7 mph N/A Snow Snow
2:35 PM 26.6 °F 8.7 °F 24.8 °F 93% - 0.2 mi WSW 38.0 mph 47.2 mph N/A Snow Snow
2:55 PM 26.6 °F 9.3 °F 24.8 °F 93% - 0.2 mi WSW 34.5 mph 47.2 mph N/A Snow Snow
3:15 PM 26.6 °F 9.6 °F 26.6 °F 100% - 0.2 mi WSW 33.4 mph 43.7 mph N/A Snow Snow
3:35 PM 26.6 °F 8.7 °F 26.6 °F 100% - 0.5 mi WSW 38.0 mph 46.0 mph N/A Snow Light Snow
3:55 PM 28.4 °F 11.8 °F 26.6 °F 93% - 0.5 mi WSW 34.5 mph 47.2 mph N/A Snow Light Snow
4:15 PM 28.4 °F 12.0 °F 26.6 °F 93% - 0.5 mi WSW 33.4 mph 42.6 mph N/A Snow Light Snow
4:35 PM 28.4 °F 12.3 °F 28.4 °F 100% - 0.5 mi WSW 32.2 mph 39.1 mph N/A Snow Light Snow
4:55 PM 28.4 °F 13.0 °F 28.4 °F 100% - 0.5 mi WSW 28.8 mph 39.1 mph N/A Snow Snow
5:15 PM 28.4 °F 12.5 °F 28.4 °F 100% - 0.2 mi WSW 31.1 mph 36.8 mph N/A Snow Snow
5:35 PM 28.4 °F 13.0 °F 28.4 °F 100% - 1.0 mi WSW 28.8 mph 36.8 mph N/A Snow Light Snow
5:55 PM 28.4 °F 14.1 °F 28.4 °F 100% - 1.0 mi WSW 24.2 mph 33.4 mph N/A Snow Light Snow
6:15 PM 30.2 °F 18.5 °F 28.4 °F 93% - 0.2 mi SW 17.3 mph 25.3 mph N/A Snow Snow
6:35 PM 30.2 °F 19.8 °F 30.2 °F 100% - 0.2 mi SW 13.8 mph - N/A Snow Snow
6:55 PM 30.2 °F 20.8 °F 30.2 °F 100% 29.49 in 0.5 mi SW 11.5 mph 17.3 mph N/A Snow Heavy Snow
7:15 PM 30.2 °F 21.3 °F 30.2 °F 100% 29.48 in 0.5 mi SW 10.4 mph - N/A Snow Heavy Snow
7:35 PM 30.2 °F 21.9 °F 30.2 °F 100% - 0.5 mi SW 9.2 mph - N/A Snow Heavy Snow
7:55 PM 32.0 °F 22.1 °F 30.2 °F 93% - 1.0 mi SW 13.8 mph 19.6 mph N/A Snow Light Snow
8:15 PM 32.0 °F 19.8 °F 32.0 °F 100% - 1.0 mi SW 20.7 mph 27.6 mph N/A Snow Light Snow
8:35 PM 32.0 °F 19.5 °F 32.0 °F 100% 29.45 in 0.8 mi WSW 21.9 mph 29.9 mph N/A Snow Snow
8:55 PM 32.0 °F 19.8 °F 32.0 °F 100% 29.46 in 1.0 mi WSW 20.7 mph 26.5 mph N/A Snow Light Snow
9:15 PM 32.0 °F 20.5 °F 32.0 °F 100% 29.47 in 1.2 mi WSW 18.4 mph 25.3 mph N/A Snow Light Snow
9:35 PM 32.0 °F 23.0 °F 30.2 °F 93% 29.48 in 1.2 mi West 11.5 mph 17.3 mph N/A Snow Light Snow
9:55 PM 32.0 °F 23.0 °F 28.4 °F 87% 29.50 in 7.0 mi WNW 11.5 mph 17.3 mph N/A   Overcast
10:15 PM 32.0 °F 22.5 °F 28.4 °F 87% 29.50 in 10.0 mi WNW 12.7 mph 18.4 mph N/A   Overcast
10:35 PM 32.0 °F 20.5 °F 19.4 °F 60% 29.51 in 10.0 mi WNW 18.4 mph 24.2 mph N/A   Overcast
10:55 PM 30.2 °F 20.2 °F 14.0 °F 51% 29.50 in 10.0 mi WNW 12.7 mph 25.3 mph N/A   Overcast
11:15 PM 30.2 °F 21.3 °F 14.0 °F 51% 29.52 in 10.0 mi WSW 10.4 mph - N/A   Overcast
11:35 PM 28.4 °F 18.5 °F 19.4 °F 69% 29.52 in 10.0 mi WSW 11.5 mph - N/A   Overcast
11:55 PM 26.6 °F 16.2 °F 19.4 °F 74% - 10.0 mi WSW 11.5 mph - N/A   Overcast